Time;durP1;ratioP1;P1;durP2;ratioP2;P2;SDS_P1;SDS_P2;PMS_P1;PMS_P2;Temp;Humidity;BMP_temperature;BMP_pressure;BME280_temperature;BME280_humidity;BME280_pressure;Samples;Min_cycle;Max_cycle;Signal;HPM_P1;HPM_P2
2022/09/14 00:02:02;;;;;;;2.38;1.13;;;15.30;62.90;;;;;;5054679;28;20048;-67
2022/09/14 00:04:28;;;;;;;1.85;0.77;;;15.30;63.00;;;;;;5054586;28;20051;-67
2022/09/14 00:06:54;;;;;;;5.05;1.17;;;15.30;63.10;;;;;;5054660;28;20072;-67
2022/09/14 00:09:22;;;;;;;1.33;0.80;;;15.30;63.00;;;;;;5054232;28;20052;-67
2022/09/14 00:11:49;;;;;;;2.75;1.08;;;15.30;63.10;;;;;;5054774;28;20510;-67
2022/09/14 00:14:15;;;;;;;2.40;1.17;;;15.30;63.20;;;;;;5054348;28;20096;-67
2022/09/14 00:16:41;;;;;;;2.25;1.17;;;15.30;63.20;;;;;;5054681;28;20083;-67
2022/09/14 00:19:15;;;;;;;2.42;1.00;;;15.30;63.20;;;;;;5054486;28;20037;-67
2022/09/14 00:21:41;;;;;;;;;;;15.20;63.20;;;;;;5054695;28;20044;-67
2022/09/14 00:24:08;;;;;;;2.30;0.90;;;15.20;63.00;;;;;;5054484;28;19916;-67
2022/09/14 00:26:34;;;;;;;3.28;0.95;;;15.20;63.20;;;;;;5053836;28;20041;-67
2022/09/14 00:29:03;;;;;;;2.20;1.00;;;15.20;63.30;;;;;;5054208;28;20120;-67
2022/09/14 00:31:34;;;;;;;3.55;1.23;;;15.20;63.30;;;;;;5054131;28;20048;-67
2022/09/14 00:34:00;;;;;;;1.15;0.70;;;15.20;63.30;;;;;;5053825;28;20779;-67
2022/09/14 00:36:27;;;;;;;2.63;0.85;;;15.10;63.20;;;;;;5054007;28;20095;-67
2022/09/14 00:38:55;;;;;;;1.88;1.00;;;15.10;63.30;;;;;;5054440;28;20033;-67
2022/09/14 00:41:24;;;;;;;4.00;1.23;;;15.10;63.30;;;;;;5054052;28;20074;-67
2022/09/14 00:43:51;;;;;;;3.15;1.02;;;15.10;63.40;;;;;;5053866;28;20086;-67
2022/09/14 00:46:17;;;;;;;2.42;1.15;;;15.10;63.50;;;;;;5054276;28;20049;-67
2022/09/14 00:48:43;;;;;;;2.45;0.90;;;15.10;63.50;;;;;;5037251;28;20048;-68
2022/09/14 00:51:08;;;;;;;3.08;1.13;;;15.10;63.50;;;;;;5054006;28;20049;-68
2022/09/14 00:53:34;;;;;;;1.33;1.00;;;15.10;63.60;;;;;;5053564;28;20078;-69
2022/09/14 00:56:00;;;;;;;2.15;1.00;;;15.10;63.60;;;;;;5054039;28;20086;-69
2022/09/14 00:58:26;;;;;;;1.23;0.82;;;15.10;63.60;;;;;;5053790;28;20522;-69
2022/09/14 01:00:53;;;;;;;2.17;1.02;;;15.10;63.70;;;;;;5053401;28;20413;-69
2022/09/14 01:03:19;;;;;;;2.67;1.13;;;15.10;63.70;;;;;;5053097;28;20481;-69
2022/09/14 01:05:48;;;;;;;1.90;1.10;;;15.10;63.70;;;;;;5054159;28;20048;-69
2022/09/14 01:08:36;;;;;;;2.00;0.90;;;15.10;63.80;;;;;;5053691;28;20045;-69
2022/09/14 01:11:28;;;;;;;2.88;1.17;;;15.10;63.70;;;;;;5053281;28;20052;-69
2022/09/14 01:14:26;;;;;;;2.13;0.80;;;15.10;63.80;;;;;;5053628;28;20068;-69
2022/09/14 01:17:07;;;;;;;2.45;1.05;;;15.10;63.70;;;;;;5048403;28;20056;-69
2022/09/14 01:19:42;;;;;;;2.25;1.10;;;15.10;63.70;;;;;;5052341;28;20049;-69
2022/09/14 01:22:33;;;;;;;4.05;1.33;;;15.10;63.70;;;;;;5036368;28;20037;-69
2022/09/14 01:25:13;;;;;;;1.60;0.85;;;15.10;63.70;;;;;;5053566;28;20400;-69
2022/09/14 01:27:42;;;;;;;4.78;1.17;;;15.00;63.70;;;;;;5052817;28;20079;-69
2022/09/14 01:30:15;;;;;;;2.10;1.25;;;15.00;63.80;;;;;;5053237;28;20033;-69
2022/09/14 01:32:44;;;;;;;3.30;1.52;;;15.00;63.70;;;;;;5050182;28;20508;-69
2022/09/14 01:35:30;;;;;;;2.85;1.17;;;15.00;63.70;;;;;;5051946;28;20089;-70
2022/09/14 01:38:31;;;;;;;3.45;1.27;;;15.00;63.70;;;;;;5047712;28;20400;-69
2022/09/14 01:41:01;;;;;;;1.52;1.00;;;15.00;63.70;;;;;;5055265;28;20427;-69
2022/09/14 01:43:40;;;;;;;2.40;1.15;;;15.00;63.70;;;;;;5052604;28;20075;-69
2022/09/14 01:46:17;;;;;;;3.78;1.02;;;15.10;63.80;;;;;;5053133;28;20400;-69
2022/09/14 01:48:56;;;;;;;2.58;1.20;;;15.10;63.70;;;;;;5052623;28;20080;-69
2022/09/14 01:51:28;;;;;;;3.47;1.35;;;15.00;63.70;;;;;;5041517;28;20037;-69
2022/09/14 01:54:02;;;;;;;2.65;1.10;;;15.00;63.60;;;;;;5052945;28;20033;-69
2022/09/14 01:57:16;;;;;;;2.75;1.08;;;15.00;63.50;;;;;;5035355;28;20037;-69
2022/09/14 01:59:47;;;;;;;3.47;1.17;;;15.00;63.40;;;;;;5035187;28;20051;-69
2022/09/14 02:02:19;;;;;;;2.85;0.98;;;15.00;63.70;;;;;;5048326;28;20041;-69
2022/09/14 02:04:54;;;;;;;2.28;1.33;;;15.00;63.70;;;;;;5052202;28;20083;-69
2022/09/14 02:07:20;;;;;;;2.75;1.00;;;15.00;63.80;;;;;;5032801;28;20041;-67
2022/09/14 02:09:47;;;;;;;2.40;1.20;;;15.00;63.80;;;;;;5049214;28;20041;-67
2022/09/14 02:12:14;;;;;;;2.63;1.17;;;14.90;63.80;;;;;;5035945;28;20056;-67
2022/09/14 02:14:41;;;;;;;2.00;1.20;;;14.90;63.80;;;;;;5051276;28;20057;-67
2022/09/14 02:17:07;;;;;;;1.70;0.90;;;14.90;63.80;;;;;;5051846;28;20037;-67
2022/09/14 02:19:40;;;;;;;2.53;1.20;;;14.90;63.80;;;;;;5052704;28;20094;-67
2022/09/14 02:22:05;;;;;;;1.90;1.10;;;14.90;63.90;;;;;;5052290;28;20044;-67
2022/09/14 02:24:31;;;;;;;1.92;1.50;;;14.90;63.90;;;;;;5052174;28;20037;-67
2022/09/14 02:26:58;;;;;;;6.57;1.50;;;14.90;64.50;;;;;;5052069;28;20095;-67
2022/09/14 02:29:24;;;;;;;2.92;1.20;;;14.90;64.20;;;;;;5052361;28;20466;-67
2022/09/14 02:32:08;;;;;;;3.67;1.65;;;14.90;64.30;;;;;;5051978;28;20132;-67
2022/09/14 02:34:34;;;;;;;;;;;14.90;64.30;;;;;;5052479;28;20045;-67
2022/09/14 02:37:15;;;;;;;2.80;0.98;;;14.90;63.90;;;;;;5051957;28;20317;-67
2022/09/14 02:40:04;;;;;;;2.83;1.13;;;14.90;64.40;;;;;;5051878;28;20099;-67
2022/09/14 02:42:43;;;;;;;3.20;1.50;;;14.90;64.30;;;;;;5068540;28;20393;-68
2022/09/14 02:45:24;;;;;;;2.63;1.63;;;14.90;64.50;;;;;;5051627;28;20094;-67
2022/09/14 02:48:06;;;;;;;2.53;1.58;;;14.90;64.60;;;;;;5051249;28;20082;-67
2022/09/14 02:50:39;;;;;;;2.55;1.20;;;14.90;64.70;;;;;;5051688;28;20041;-67
2022/09/14 02:53:41;;;;;;;4.32;0.93;;;14.90;64.70;;;;;;5035192;28;20052;-67
2022/09/14 02:56:09;;;;;;;1.90;0.95;;;14.90;64.60;;;;;;5032036;28;20048;-67
2022/09/14 02:58:37;;;;;;;2.53;1.05;;;14.90;64.80;;;;;;5044278;28;20476;-67
2022/09/14 03:01:05;;;;;;;2.33;0.88;;;14.90;64.80;;;;;;5051859;28;20059;-67
2022/09/14 03:03:31;;;;;;;1.73;0.88;;;14.90;64.80;;;;;;5051065;28;20045;-67
2022/09/14 03:05:57;;;;;;;1.25;0.80;;;14.90;64.80;;;;;;5053005;28;20105;-68
2022/09/14 03:08:24;;;;;;;2.38;1.05;;;14.90;64.80;;;;;;5014688;28;20041;-67
2022/09/14 03:10:50;;;;;;;3.90;1.25;;;14.90;64.80;;;;;;5015296;28;20045;-67
2022/09/14 03:13:16;;;;;;;1.13;0.70;;;14.90;64.80;;;;;;5006377;28;20068;-67
2022/09/14 03:15:42;;;;;;;3.08;0.90;;;14.90;64.80;;;;;;5050991;28;20052;-67
2022/09/14 03:18:07;;;;;;;2.00;1.30;;;14.90;64.80;;;;;;5034579;28;20044;-67
2022/09/14 03:20:33;;;;;;;2.85;1.70;;;14.90;64.80;;;;;;5051880;28;20049;-67
2022/09/14 03:23:00;;;;;;;5.40;1.30;;;15.00;65.00;;;;;;5051390;28;20094;-67
2022/09/14 03:25:26;;;;;;;3.53;1.90;;;14.90;65.00;;;;;;5051028;28;20421;-67
2022/09/14 03:27:58;;;;;;;3.75;1.00;;;15.00;65.10;;;;;;5050649;28;20411;-67
2022/09/14 03:30:25;;;;;;;1.73;1.00;;;14.90;65.10;;;;;;5051310;28;20045;-67
2022/09/14 03:32:50;;;;;;;1.85;1.10;;;14.90;65.00;;;;;;5051134;28;20072;-67
2022/09/14 03:35:17;;;;;;;1.30;0.98;;;15.00;65.10;;;;;;5051377;28;20117;-67
2022/09/14 03:37:45;;;;;;;2.20;1.42;;;15.00;65.10;;;;;;5051233;28;20492;-67
2022/09/14 03:40:13;;;;;;;3.33;1.58;;;15.00;65.20;;;;;;5050956;28;20488;-67
2022/09/14 03:42:47;;;;;;;3.47;1.80;;;15.00;65.30;;;;;;5034365;28;20041;-67
2022/09/14 03:45:14;;;;;;;2.85;1.35;;;14.90;65.20;;;;;;5051042;28;20076;-67
2022/09/14 03:47:41;;;;;;;3.20;1.40;;;15.00;65.30;;;;;;5034546;28;20057;-67
2022/09/14 03:50:08;;;;;;;2.38;1.40;;;15.00;65.30;;;;;;5050904;28;20123;-67
2022/09/14 03:52:35;;;;;;;2.58;1.60;;;14.90;65.20;;;;;;5050938;28;20045;-67
2022/09/14 03:55:01;;;;;;;2.28;1.45;;;14.90;65.30;;;;;;5051188;28;20084;-67
2022/09/14 03:57:27;;;;;;;3.17;2.03;;;15.00;65.30;;;;;;5050760;28;20044;-67
2022/09/14 03:59:52;;;;;;;2.38;1.77;;;15.00;65.50;;;;;;5050756;28;20037;-67
2022/09/14 04:02:18;;;;;;;3.05;1.58;;;15.00;65.50;;;;;;5034367;28;20041;-67
2022/09/14 04:04:47;;;;;;;2.15;1.27;;;15.00;65.50;;;;;;5050971;28;20055;-67
2022/09/14 04:07:16;;;;;;;2.67;1.85;;;15.00;65.50;;;;;;5050982;28;20051;-67
2022/09/14 04:09:42;;;;;;;3.60;1.98;;;15.00;65.50;;;;;;5050880;28;20041;-67
2022/09/14 04:12:08;;;;;;;2.58;1.13;;;15.00;65.60;;;;;;5050872;28;20041;-67
2022/09/14 04:14:33;;;;;;;3.22;1.85;;;15.00;65.60;;;;;;5050942;28;20049;-67
2022/09/14 04:16:59;;;;;;;5.65;2.88;;;15.00;65.60;;;;;;5051076;28;20492;-67
2022/09/14 04:19:25;;;;;;;3.63;1.70;;;15.00;65.80;;;;;;5033573;28;20033;-67
2022/09/14 04:21:50;;;;;;;5.00;2.10;;;15.00;65.90;;;;;;5050347;28;20403;-69
2022/09/14 04:24:16;;;;;;;1.85;1.17;;;15.00;65.80;;;;;;5067592;28;20072;-67
2022/09/14 04:26:44;;;;;;;2.03;1.30;;;15.10;65.90;;;;;;5034551;28;20033;-67
2022/09/14 04:29:10;;;;;;;3.05;1.73;;;15.00;65.70;;;;;;5050645;28;20055;-67
2022/09/14 04:31:35;;;;;;;2.30;1.52;;;15.10;65.70;;;;;;5050203;28;20040;-67
2022/09/14 04:34:01;;;;;;;2.05;1.52;;;15.10;65.60;;;;;;5050699;28;20045;-67
2022/09/14 04:36:29;;;;;;;4.30;1.67;;;15.10;65.70;;;;;;5050983;28;20451;-67
2022/09/14 04:38:57;;;;;;;3.90;2.40;;;15.10;65.60;;;;;;5052716;28;20112;-67
2022/09/14 04:41:24;;;;;;;3.60;1.77;;;15.10;65.80;;;;;;5053965;28;20086;-67
2022/09/14 04:43:51;;;;;;;4.15;1.80;;;15.10;65.90;;;;;;5054369;28;20046;-67
2022/09/14 04:46:19;;;;;;;4.43;1.60;;;15.10;65.90;;;;;;5037446;28;20179;-67
2022/09/14 04:48:45;;;;;;;1.58;1.13;;;15.10;65.90;;;;;;5053659;28;20037;-67
2022/09/14 04:51:19;;;;;;;3.25;1.80;;;15.10;65.80;;;;;;5053929;28;20037;-68
2022/09/14 04:53:46;;;;;;;;;;;15.10;65.90;;;;;;5037560;28;20088;-68
2022/09/14 04:56:13;;;;;;;3.95;2.53;;;15.10;65.50;;;;;;5036681;28;20395;-67
2022/09/14 04:58:43;;;;;;;2.92;1.45;;;15.10;66.10;;;;;;5037157;28;20041;-67
2022/09/14 05:01:12;;;;;;;4.07;1.55;;;15.10;66.10;;;;;;5053682;28;20126;-67
2022/09/14 05:03:39;;;;;;;2.10;1.30;;;15.10;66.10;;;;;;5053982;28;20512;-68
2022/09/14 05:06:14;;;;;;;6.07;1.67;;;15.10;66.10;;;;;;5054049;28;20435;-67
2022/09/14 05:08:40;;;;;;;2.75;1.42;;;15.10;66.00;;;;;;5053714;28;20044;-68
2022/09/14 05:11:08;;;;;;;1.92;1.30;;;15.10;66.00;;;;;;5054082;28;20119;-67
2022/09/14 05:13:35;;;;;;;3.20;1.38;;;15.10;66.10;;;;;;5053257;28;20128;-67
2022/09/14 05:16:24;;;;;;;3.13;2.38;;;15.10;66.10;;;;;;5036721;28;20053;-67
2022/09/14 05:18:53;;;;;;;3.47;1.63;;;15.10;66.20;;;;;;5052580;28;20119;-68
2022/09/14 05:21:21;;;;;;;1.95;1.10;;;15.10;66.20;;;;;;5053403;28;20033;-68
2022/09/14 05:23:47;;;;;;;2.40;1.75;;;15.10;66.60;;;;;;5052847;28;20562;-68
2022/09/14 05:26:13;;;;;;;2.78;1.33;;;15.10;66.20;;;;;;5053268;28;20094;-68
2022/09/14 05:28:39;;;;;;;2.70;1.30;;;15.10;66.20;;;;;;5053127;28;20037;-67
2022/09/14 05:31:07;;;;;;;2.45;1.40;;;15.20;66.20;;;;;;5052999;28;20503;-67
2022/09/14 05:33:34;;;;;;;1.90;1.30;;;15.20;66.20;;;;;;5053394;28;20041;-68
2022/09/14 05:36:05;;;;;;;2.60;1.40;;;15.20;66.10;;;;;;5052797;28;20485;-68
2022/09/14 05:38:34;;;;;;;2.70;1.38;;;15.20;66.00;;;;;;5053264;28;20045;-68
2022/09/14 05:41:00;;;;;;;5.30;1.95;;;15.20;66.00;;;;;;5053146;28;20033;-67
2022/09/14 05:43:27;;;;;;;2.00;1.38;;;15.20;66.00;;;;;;5036171;28;20037;-67
2022/09/14 05:45:53;;;;;;;2.60;1.55;;;15.20;66.00;;;;;;5052582;28;20534;-67
2022/09/14 05:48:18;;;;;;;2.50;1.30;;;15.30;66.00;;;;;;5052931;28;20049;-67
2022/09/14 05:50:44;;;;;;;2.42;2.00;;;15.30;66.00;;;;;;5052861;28;20052;-67
2022/09/14 05:53:10;;;;;;;4.07;1.75;;;15.30;66.00;;;;;;5053004;28;20044;-66
2022/09/14 05:55:36;;;;;;;4.38;1.85;;;15.30;66.20;;;;;;5052114;28;20057;-66
2022/09/14 05:58:01;;;;;;;3.78;1.85;;;15.30;66.20;;;;;;5052100;28;20036;-66
2022/09/14 06:00:28;;;;;;;2.58;2.13;;;15.30;66.10;;;;;;5052502;28;20037;-66
2022/09/14 06:02:55;;;;;;;4.35;2.22;;;15.30;66.30;;;;;;5052714;28;20045;-66
2022/09/14 06:05:21;;;;;;;3.22;1.60;;;15.40;66.60;;;;;;5051731;28;20059;-66
2022/09/14 06:07:53;;;;;;;2.58;1.58;;;15.40;66.60;;;;;;5052656;28;20048;-66
2022/09/14 06:10:20;;;;;;;4.07;1.75;;;15.40;66.50;;;;;;5052640;28;20124;-66
2022/09/14 06:12:46;;;;;;;2.40;1.50;;;15.40;66.50;;;;;;5052467;28;20103;-66
2022/09/14 06:15:12;;;;;;;3.95;3.17;;;15.40;66.90;;;;;;5052245;28;20056;-66
2022/09/14 06:17:38;;;;;;;5.13;3.30;;;15.40;66.70;;;;;;5052098;28;20052;-66
2022/09/14 06:20:06;;;;;;;5.65;3.45;;;15.40;67.60;;;;;;5052388;28;20028;-66
2022/09/14 06:22:32;;;;;;;4.65;2.83;;;15.40;67.50;;;;;;5052457;28;20056;-66
2022/09/14 06:24:57;;;;;;;5.85;3.20;;;15.40;67.70;;;;;;5052484;28;20045;-66
2022/09/14 06:27:23;;;;;;;6.32;3.80;;;15.40;67.90;;;;;;5052059;28;20084;-66
2022/09/14 06:29:51;;;;;;;3.47;3.08;;;15.40;68.10;;;;;;5052368;28;20107;-66
2022/09/14 06:32:17;;;;;;;5.03;3.63;;;15.40;68.40;;;;;;5032892;28;20441;-66
2022/09/14 06:34:43;;;;;;;3.40;2.10;;;15.30;68.50;;;;;;5046108;28;20045;-66
2022/09/14 06:37:09;;;;;;;3.50;2.53;;;15.30;68.60;;;;;;5035087;28;20032;-66
2022/09/14 06:39:35;;;;;;;4.93;2.72;;;15.40;68.70;;;;;;5052209;28;20051;-66
2022/09/14 06:42:01;;;;;;;6.57;2.95;;;15.30;68.60;;;;;;5035575;28;20033;-66
2022/09/14 06:44:27;;;;;;;4.57;2.78;;;15.30;68.80;;;;;;5052039;28;20041;-66
2022/09/14 06:46:52;;;;;;;4.43;2.08;;;15.40;68.90;;;;;;5034937;28;20041;-66
2022/09/14 06:49:21;;;;;;;4.45;2.90;;;15.40;68.70;;;;;;5051839;28;20095;-66
2022/09/14 06:51:49;;;;;;;4.20;2.63;;;15.50;68.70;;;;;;5034944;28;20040;-66
2022/09/14 06:54:16;;;;;;;6.38;2.90;;;15.50;68.70;;;;;;5051389;28;20045;-65
2022/09/14 06:56:44;;;;;;;4.63;2.70;;;15.50;68.70;;;;;;5051811;28;20032;-66
2022/09/14 06:59:12;;;;;;;7.38;3.13;;;15.60;68.80;;;;;;5051424;28;20048;-66
2022/09/14 07:01:40;;;;;;;5.20;3.10;;;15.60;68.80;;;;;;5051158;28;20071;-66
2022/09/14 07:04:06;;;;;;;4.88;3.70;;;15.60;69.00;;;;;;5052110;28;20098;-66
2022/09/14 07:06:39;;;;;;;2.85;2.08;;;15.70;69.30;;;;;;5051822;28;20045;-66
2022/09/14 07:09:05;;;;;;;3.67;2.40;;;15.70;69.30;;;;;;5051205;28;20052;-68
2022/09/14 07:11:31;;;;;;;6.40;2.85;;;15.80;69.30;;;;;;5050855;28;20044;-68
2022/09/14 07:14:01;;;;;;;4.78;2.58;;;15.80;69.30;;;;;;5034743;28;20531;-68
2022/09/14 07:16:28;;;;;;;5.20;3.17;;;15.90;69.40;;;;;;5051614;28;20057;-70
2022/09/14 07:18:55;;;;;;;9.05;3.63;;;15.90;69.60;;;;;;5051303;28;20033;-70
2022/09/14 07:21:22;;;;;;;5.82;3.30;;;16.00;69.80;;;;;;5051811;28;20146;-70
2022/09/14 07:23:48;;;;;;;6.85;3.70;;;16.00;69.90;;;;;;5051490;28;20076;-71
2022/09/14 07:26:15;;;;;;;7.28;4.13;;;16.10;70.10;;;;;;5051077;28;20072;-71
2022/09/14 07:28:43;;;;;;;6.70;3.45;;;16.20;70.30;;;;;;5051487;28;20048;-71
2022/09/14 07:31:16;;;;;;;5.63;3.97;;;16.20;70.30;;;;;;5050773;28;20029;-71
2022/09/14 07:33:42;;;;;;;5.38;3.60;;;16.30;70.40;;;;;;5051734;28;20379;-71
2022/09/14 07:36:09;;;;;;;7.28;3.47;;;16.30;70.40;;;;;;5051423;28;20124;-71
2022/09/14 07:38:35;;;;;;;5.55;3.63;;;16.40;70.60;;;;;;5034472;28;20041;-71
2022/09/14 07:41:01;;;;;;;6.25;3.10;;;16.50;70.70;;;;;;5034531;28;20041;-71
2022/09/14 07:43:27;;;;;;;4.13;2.63;;;16.60;70.70;;;;;;5051813;28;20468;-71
2022/09/14 07:45:53;;;;;;;4.70;3.13;;;16.60;70.60;;;;;;5050933;28;20068;-71
2022/09/14 07:48:19;;;;;;;5.22;3.05;;;16.70;70.60;;;;;;5051684;28;20041;-71
2022/09/14 07:50:46;;;;;;;3.67;3.15;;;16.80;70.80;;;;;;5034819;28;20480;-71
2022/09/14 07:53:12;;;;;;;4.65;3.10;;;16.90;71.00;;;;;;5051086;28;20122;-71
2022/09/14 07:55:38;;;;;;;7.75;3.40;;;16.90;71.10;;;;;;5051081;28;20087;-71
2022/09/14 07:58:04;;;;;;;5.40;3.17;;;17.00;71.40;;;;;;5051283;28;20049;-71
2022/09/14 08:00:30;;;;;;;4.90;2.40;;;17.00;71.30;;;;;;5034486;28;20040;-71
2022/09/14 08:02:56;;;;;;;5.32;2.97;;;17.10;71.00;;;;;;5051134;28;20040;-71
2022/09/14 08:05:23;;;;;;;7.07;2.45;;;17.30;70.80;;;;;;5016537;28;20041;-68
2022/09/14 08:07:55;;;;;;;5.07;2.50;;;17.30;70.70;;;;;;5051216;28;20037;-68
2022/09/14 08:10:22;;;;;;;5.20;1.98;;;17.40;70.40;;;;;;5050639;28;20045;-68
2022/09/14 08:12:52;;;;;;;3.95;1.90;;;17.50;70.00;;;;;;5051653;28;20049;-68
2022/09/14 08:15:19;;;;;;;5.00;1.40;;;17.60;69.90;;;;;;5054553;28;20064;-68
2022/09/14 08:17:46;;;;;;;4.47;1.60;;;17.60;69.40;;;;;;5054481;28;20491;-68
2022/09/14 08:20:11;;;;;;;4.13;1.30;;;17.70;68.90;;;;;;5038024;28;20492;-68
2022/09/14 08:22:38;;;;;;;3.05;1.00;;;17.80;68.70;;;;;;5054415;28;20051;-68
2022/09/14 08:25:04;;;;;;;2.67;0.93;;;17.90;68.80;;;;;;5054654;28;20107;-68
2022/09/14 08:27:30;;;;;;;2.80;0.80;;;18.00;67.80;;;;;;5054800;28;20067;-69
2022/09/14 08:29:55;;;;;;;3.58;0.77;;;18.10;67.20;;;;;;5054588;28;20044;-69
2022/09/14 08:32:21;;;;;;;2.88;0.85;;;18.20;66.30;;;;;;5054022;28;20036;-69
2022/09/14 08:34:47;;;;;;;3.35;0.90;;;18.30;65.80;;;;;;5054181;28;20052;-69
2022/09/14 08:37:14;;;;;;;2.90;0.80;;;18.40;65.70;;;;;;5054568;28;20040;-68
2022/09/14 08:39:39;;;;;;;4.65;0.80;;;18.60;65.30;;;;;;5054439;28;20045;-68
2022/09/14 08:42:13;;;;;;;2.67;0.60;;;18.60;64.70;;;;;;5054086;28;20036;-68
2022/09/14 08:44:48;;;;;;;5.18;0.70;;;18.80;63.80;;;;;;5054543;28;20111;-68
2022/09/14 08:47:27;;;;;;;4.18;1.05;;;18.90;63.50;;;;;;5054077;28;20044;-68
2022/09/14 08:50:13;;;;;;;2.53;0.73;;;19.00;62.80;;;;;;5053855;28;20047;-68
2022/09/14 08:52:46;;;;;;;0.88;0.35;;;19.10;62.70;;;;;;5054175;28;20037;-68
2022/09/14 08:55:33;;;;;;;2.70;0.60;;;19.20;62.10;;;;;;5054087;28;20546;-68
2022/09/14 08:58:16;;;;;;;2.20;0.30;;;19.30;61.30;;;;;;5054151;28;20041;-68
2022/09/14 09:01:19;;;;;;;1.48;0.30;;;19.40;61.20;;;;;;5054146;28;20441;-68
2022/09/14 09:04:01;;;;;;;2.75;0.47;;;19.50;60.80;;;;;;5053810;28;20480;-68
2022/09/14 09:07:05;;;;;;;2.25;0.70;;;19.60;60.30;;;;;;5053382;28;20488;-68
2022/09/14 09:09:47;;;;;;;5.40;0.60;;;19.70;59.10;;;;;;5053744;28;20515;-68
2022/09/14 09:12:37;;;;;;;0.95;0.50;;;19.80;58.70;;;;;;5053801;28;20036;-68
2022/09/14 09:15:25;;;;;;;3.20;0.55;;;19.90;58.70;;;;;;5053094;28;20087;-68
2022/09/14 09:18:05;;;;;;;2.25;0.47;;;19.90;58.40;;;;;;5053956;28;20118;-68
2022/09/14 09:20:44;;;;;;;2.67;0.43;;;19.90;57.90;;;;;;5053685;28;20044;-68
2022/09/14 09:23:19;;;;;;;5.18;0.98;;;20.00;58.40;;;;;;5052848;28;20064;-68
2022/09/14 09:25:57;;;;;;;3.67;0.40;;;20.00;58.50;;;;;;5052469;28;20127;-68
2022/09/14 09:28:25;;;;;;;2.45;0.60;;;20.10;57.90;;;;;;5053515;28;20132;-68
2022/09/14 09:30:52;;;;;;;2.05;0.40;;;20.10;58.10;;;;;;5053536;28;20040;-68
2022/09/14 09:33:24;;;;;;;3.03;0.40;;;20.20;58.20;;;;;;5053405;28;20373;-68
2022/09/14 09:35:51;;;;;;;2.50;0.50;;;20.20;58.00;;;;;;5052978;28;20041;-68
2022/09/14 09:38:23;;;;;;;3.72;0.80;;;20.30;58.10;;;;;;5053397;28;20116;-68
2022/09/14 09:40:53;;;;;;;2.13;0.30;;;20.40;57.30;;;;;;5043801;28;20041;-68
2022/09/14 09:43:20;;;;;;;1.40;0.40;;;20.50;56.90;;;;;;5053301;28;20072;-68
2022/09/14 09:45:53;;;;;;;4.47;0.77;;;20.60;56.80;;;;;;5052830;28;20496;-68
2022/09/14 09:48:22;;;;;;;1.97;0.70;;;20.70;55.90;;;;;;5053425;28;20468;-68
2022/09/14 09:51:14;;;;;;;3.15;0.60;;;20.60;55.40;;;;;;5053128;28;20528;-68
2022/09/14 09:53:56;;;;;;;2.53;0.52;;;20.70;56.20;;;;;;5052947;28;20045;-68
2022/09/14 09:56:35;;;;;;;2.47;0.57;;;20.70;56.10;;;;;;5043763;28;20049;-68
2022/09/14 09:59:00;;;;;;;4.00;0.65;;;20.80;55.80;;;;;;5035986;28;20386;-68
2022/09/14 10:01:29;;;;;;;4.63;0.70;;;20.90;55.00;;;;;;5053205;28;20048;-67
2022/09/14 10:04:02;;;;;;;4.32;0.80;;;20.90;54.60;;;;;;5052691;28;20044;-67
2022/09/14 10:06:28;;;;;;;4.10;0.75;;;20.90;54.30;;;;;;5052856;28;20032;-67
2022/09/14 10:08:56;;;;;;;2.80;0.70;;;21.00;54.10;;;;;;5052625;28;20374;-67
2022/09/14 10:11:36;;;;;;;2.85;0.73;;;21.10;54.40;;;;;;5052762;28;20041;-67
2022/09/14 10:14:30;;;;;;;4.55;0.70;;;21.10;54.10;;;;;;5052468;28;20089;-67
2022/09/14 10:17:05;;;;;;;4.28;0.80;;;21.20;54.20;;;;;;5052328;28;20044;-67
2022/09/14 10:19:32;;;;;;;2.58;0.50;;;21.30;53.80;;;;;;5032611;28;20042;-68
2022/09/14 10:22:18;;;;;;;4.97;0.85;;;21.30;53.20;;;;;;5032605;28;20072;-68
2022/09/14 10:25:01;;;;;;;2.95;0.70;;;21.30;53.20;;;;;;5042111;28;20056;-68
2022/09/14 10:27:35;;;;;;;4.38;0.73;;;21.40;53.50;;;;;;5052062;28;20041;-68
2022/09/14 10:30:04;;;;;;;4.32;0.50;;;21.40;52.90;;;;;;5052375;28;20060;-68
2022/09/14 10:32:32;;;;;;;4.32;0.98;;;21.30;53.40;;;;;;5052572;28;20381;-68
2022/09/14 10:34:58;;;;;;;6.35;1.00;;;21.40;53.20;;;;;;5051381;28;20059;-68
2022/09/14 10:37:32;;;;;;;5.28;1.17;;;21.40;52.90;;;;;;5051664;28;20040;-68
2022/09/14 10:40:06;;;;;;;5.72;1.45;;;21.40;52.80;;;;;;5052262;28;20039;-68
2022/09/14 10:43:06;;;;;;;2.53;0.50;;;21.50;52.20;;;;;;5052128;28;20091;-68
2022/09/14 10:45:40;;;;;;;4.35;1.05;;;21.50;51.70;;;;;;5035263;28;20080;-68
2022/09/14 10:48:18;;;;;;;1.88;0.45;;;21.60;53.00;;;;;;5052992;28;20069;-68
2022/09/14 10:51:19;;;;;;;5.15;1.08;;;21.70;52.10;;;;;;5051967;28;20098;-68
2022/09/14 10:53:54;;;;;;;3.70;0.73;;;21.80;50.80;;;;;;5051862;28;20124;-68
2022/09/14 10:56:38;;;;;;;3.17;0.45;;;21.90;50.00;;;;;;5051665;28;20048;-68
2022/09/14 10:59:22;;;;;;;2.58;0.45;;;21.90;49.00;;;;;;5051594;28;20048;-68
2022/09/14 11:02:25;;;;;;;3.10;0.55;;;22.00;49.90;;;;;;5051942;28;20076;-68
2022/09/14 11:05:13;;;;;;;1.92;0.60;;;22.00;50.20;;;;;;5051580;28;20049;-68
2022/09/14 11:07:45;;;;;;;3.70;0.70;;;22.10;50.40;;;;;;5051302;28;20058;-68
2022/09/14 11:10:43;;;;;;;3.70;0.43;;;22.10;50.60;;;;;;5051486;28;20056;-68
2022/09/14 11:13:29;;;;;;;1.98;0.60;;;22.10;50.30;;;;;;5038647;28;20182;-69
2022/09/14 11:16:30;;;;;;;4.15;0.80;;;22.20;50.40;;;;;;5051071;28;20053;-68
2022/09/14 11:19:18;;;;;;;1.33;0.47;;;22.20;51.80;;;;;;5068004;28;20079;-68
2022/09/14 11:22:15;;;;;;;2.47;0.50;;;22.30;51.70;;;;;;5041503;28;20435;-68
2022/09/14 11:25:17;;;;;;;2.92;0.77;;;22.40;51.60;;;;;;5051111;28;20072;-68
2022/09/14 11:27:53;;;;;;;3.13;0.43;;;22.50;52.00;;;;;;5050742;28;20053;-68
2022/09/14 11:30:30;;;;;;;3.50;0.70;;;22.60;51.90;;;;;;5051444;28;20492;-69
2022/09/14 11:33:09;;;;;;;5.43;1.25;;;22.60;50.60;;;;;;5051342;28;20051;-68
2022/09/14 11:35:44;;;;;;;2.97;0.60;;;22.70;49.30;;;;;;5051116;28;20049;-68
2022/09/14 11:38:29;;;;;;;5.05;0.80;;;22.80;48.70;;;;;;5051425;28;20576;-68
2022/09/14 11:41:09;;;;;;;4.68;0.60;;;22.80;47.60;;;;;;5050947;28;20119;-68
2022/09/14 11:43:56;;;;;;;4.70;0.70;;;22.80;48.60;;;;;;5051533;28;20044;-68
2022/09/14 11:46:32;;;;;;;2.72;0.60;;;22.90;48.40;;;;;;5051270;28;20045;-68
2022/09/14 11:49:10;;;;;;;2.95;0.60;;;22.90;48.10;;;;;;5055268;28;20110;-68
2022/09/14 11:51:43;;;;;;;3.17;0.60;;;22.90;48.30;;;;;;5055120;28;20048;-68
2022/09/14 11:54:18;;;;;;;3.65;0.63;;;23.00;46.50;;;;;;5055123;28;20123;-69
2022/09/14 11:56:55;;;;;;;1.30;0.55;;;23.00;46.90;;;;;;5054773;28;20037;-69
2022/09/14 11:59:38;;;;;;;3.80;0.63;;;23.00;48.20;;;;;;5055339;28;20079;-68
2022/09/14 12:02:26;;;;;;;3.92;0.88;;;23.00;48.70;;;;;;5037299;28;20120;-68
2022/09/14 12:05:04;;;;;;;2.83;0.50;;;23.00;49.50;;;;;;5055212;28;20396;-68
2022/09/14 12:07:54;;;;;;;3.65;0.85;;;23.10;49.30;;;;;;5054807;28;20041;-69
2022/09/14 12:10:21;;;;;;;2.97;0.77;;;23.10;48.30;;;;;;5071186;28;20057;-68
2022/09/14 12:13:05;;;;;;;2.95;0.70;;;23.10;48.90;;;;;;5054798;28;20480;-68
2022/09/14 12:15:34;;;;;;;2.72;0.50;;;23.20;49.40;;;;;;5054609;28;20136;-68
2022/09/14 12:18:06;;;;;;;1.98;0.60;;;23.20;49.40;;;;;;5054372;28;20128;-68
2022/09/14 12:20:45;;;;;;;1.85;0.50;;;23.30;49.20;;;;;;5054695;28;20051;-68
2022/09/14 12:23:29;;;;;;;4.05;0.75;;;23.30;49.30;;;;;;5054523;28;20037;-68
2022/09/14 12:25:58;;;;;;;4.93;0.95;;;23.30;48.80;;;;;;5054388;28;20520;-68
2022/09/14 12:28:28;;;;;;;2.72;0.60;;;23.30;49.10;;;;;;5054468;28;20041;-67
2022/09/14 12:30:53;;;;;;;2.08;0.60;;;23.30;49.00;;;;;;5037662;28;20037;-68
2022/09/14 12:33:31;;;;;;;2.35;0.30;;;23.40;48.20;;;;;;5054613;28;20036;-65
2022/09/14 12:36:09;;;;;;;3.60;0.63;;;23.40;48.40;;;;;;5054408;28;20568;-65
2022/09/14 12:38:41;;;;;;;3.95;0.80;;;23.40;48.30;;;;;;5054196;28;20576;-65
2022/09/14 12:41:10;;;;;;;3.55;0.82;;;23.50;49.00;;;;;;5037903;28;20087;-65
2022/09/14 12:43:35;;;;;;;3.10;0.98;;;23.40;49.00;;;;;;5054264;28;20072;-68
2022/09/14 12:46:19;;;;;;;6.38;1.83;;;23.50;48.30;;;;;;5054854;28;20095;-68
2022/09/14 12:48:45;;;;;;;13.32;3.95;;;23.50;47.80;;;;;;5052942;28;20045;-68
2022/09/14 12:51:27;;;;;;;3.55;1.13;;;23.50;48.00;;;;;;5052973;28;20118;-67
2022/09/14 12:54:08;;;;;;;6.72;1.83;;;23.50;47.10;;;;;;5053400;28;20052;-67
2022/09/14 12:56:41;;;;;;;12.20;3.88;;;23.40;46.60;;;;;;5050791;28;20038;-67
2022/09/14 12:59:34;;;;;;;8.30;2.00;;;23.40;46.80;;;;;;5050899;28;20029;-67
2022/09/14 13:02:19;;;;;;;2.47;0.77;;;23.40;47.00;;;;;;5053507;28;20044;-66
2022/09/14 13:04:46;;;;;;;2.95;1.05;;;23.40;47.60;;;;;;5054065;28;20535;-67
2022/09/14 13:07:18;;;;;;;4.00;0.50;;;23.40;47.70;;;;;;5053614;28;20037;-67
2022/09/14 13:09:56;;;;;;;2.78;0.70;;;23.40;47.50;;;;;;5053699;28;20049;-67
2022/09/14 13:12:43;;;;;;;3.22;0.95;;;23.40;47.60;;;;;;5053507;28;20060;-67
2022/09/14 13:15:25;;;;;;;2.92;1.10;;;23.40;47.70;;;;;;5053611;28;20059;-67